< < Back
Terminal Aerodrome Forecast


Current Version              Previous Versions:   1  2  3  4  5  6  7  8  9  

Terminal Aerodrome Forecast

751
FTUS42 KFFC 302336
TAFPDK
TAF
KPDK 302336Z 3100/3124 34007KT P6SM FEW150
      TEMPO 3100/3102 33012G17KT SCT035
     FM310300 34006KT P6SM FEW150
     FM310800 03005KT P6SM FEW250
     FM311400 09006KT P6SM FEW050
     FM311800 32006KT P6SM SCT060=

Latest METAR

862
SAUS70 KWBC 310500 RRA
MTRPDK
METAR KPDK 310453Z AUTO 00000KT 10SM CLR 23/15 A2996 RMK AO2 SLP124
T02330150 403390178


USA.gov is the U.S. government's official web portal to all federal, state and local government web resources and services.